Time;durP1;ratioP1;P1;durP2;ratioP2;P2;SDS_P1;SDS_P2;PMS_P1;PMS_P2;Temp;Humidity;BMP_temperature;BMP_pressure;BME280_temperature;BME280_humidity;BME280_pressure;Samples;Min_cycle;Max_cycle;Signal;HPM_P1;HPM_P2
2022/07/05 00:00:50;;;;;;;9.60;3.95;;;14.80;99.90;;;;;;5089224;28;20463;-84
2022/07/05 00:03:15;;;;;;;5.40;2.53;;;14.80;99.90;;;;;;5073136;28;20032;-84
2022/07/05 00:05:41;;;;;;;6.60;3.42;;;14.70;99.90;;;;;;5089161;28;20463;-84
2022/07/05 00:08:07;;;;;;;8.15;3.75;;;14.70;99.90;;;;;;5072669;28;20038;-84
2022/07/05 00:10:34;;;;;;;9.05;4.18;;;14.60;99.90;;;;;;5073419;28;20040;-84
2022/07/05 00:13:00;;;;;;;9.45;4.40;;;14.60;99.90;;;;;;5073218;28;20039;-84
2022/07/05 00:15:26;;;;;;;8.20;3.67;;;14.60;99.90;;;;;;5073312;28;20501;-84
2022/07/05 00:17:51;;;;;;;8.00;3.20;;;14.60;99.90;;;;;;5073204;28;20067;-84
2022/07/05 00:20:17;;;;;;;7.22;3.85;;;14.50;99.90;;;;;;5088822;28;20039;-84
2022/07/05 00:22:43;;;;;;;7.70;3.58;;;14.50;99.90;;;;;;5089536;28;20032;-84
2022/07/05 00:25:09;;;;;;;6.85;2.72;;;14.50;99.90;;;;;;5088889;28;20040;-84
2022/07/05 00:27:34;;;;;;;8.30;4.28;;;14.40;99.90;;;;;;5089509;28;20039;-83
2022/07/05 00:30:00;;;;;;;8.73;4.60;;;14.40;99.90;;;;;;5072717;28;20033;-83
2022/07/05 00:32:25;;;;;;;5.70;2.85;;;14.40;99.90;;;;;;5089492;28;20390;-84
2022/07/05 00:34:51;;;;;;;6.82;3.95;;;14.30;99.90;;;;;;5090091;28;20577;-84
2022/07/05 00:37:17;;;;;;;8.25;4.20;;;14.30;99.90;;;;;;5072873;28;20077;-84
2022/07/05 00:39:43;;;;;;;7.72;4.20;;;14.30;99.90;;;;;;5089786;28;20040;-83
2022/07/05 00:42:08;;;;;;;7.63;4.88;;;14.30;99.90;;;;;;5072057;28;20385;-83
2022/07/05 00:44:37;;;;;;;8.32;3.90;;;14.30;99.90;;;;;;5088736;28;20044;-83
2022/07/05 00:47:04;;;;;;;8.25;3.50;;;14.20;99.90;;;;;;5089542;28;20036;-84
2022/07/05 00:49:31;;;;;;;9.27;5.15;;;14.10;99.90;;;;;;5071529;28;20039;-84
2022/07/05 00:51:58;;;;;;;7.07;3.10;;;14.10;99.90;;;;;;5089656;28;20455;-83
2022/07/05 00:54:23;;;;;;;7.70;4.72;;;14.00;99.90;;;;;;5089834;28;20076;-84
2022/07/05 00:56:49;;;;;;;9.13;5.50;;;14.00;99.90;;;;;;5089514;28;20129;-84
2022/07/05 00:59:15;;;;;;;9.35;3.92;;;14.00;99.90;;;;;;5089211;28;20470;-83
2022/07/05 01:01:40;;;;;;;9.23;3.90;;;14.00;99.90;;;;;;5088839;28;20055;-84
2022/07/05 01:04:06;;;;;;;7.40;5.07;;;13.90;99.90;;;;;;5088828;28;20136;-84
2022/07/05 01:06:32;;;;;;;7.55;3.80;;;13.90;99.90;;;;;;5088541;28;20065;-84
2022/07/05 01:08:59;;;;;;;9.48;5.15;;;13.90;99.90;;;;;;5089310;28;20058;-84
2022/07/05 01:11:25;;;;;;;8.63;5.22;;;13.80;99.90;;;;;;5089087;28;20032;-83
2022/07/05 01:13:50;;;;;;;10.85;4.47;;;13.90;99.90;;;;;;5089337;28;20040;-84
2022/07/05 01:16:16;;;;;;;9.45;5.72;;;13.80;99.90;;;;;;5089671;28;20392;-84
2022/07/05 01:18:43;;;;;;;8.57;4.10;;;13.80;99.90;;;;;;5089510;28;20036;-83
2022/07/05 01:21:15;;;;;;;8.32;4.38;;;13.80;99.90;;;;;;5088765;28;20040;-83
2022/07/05 01:23:40;;;;;;;10.02;5.65;;;13.70;99.90;;;;;;5088971;28;20044;-84
2022/07/05 01:26:07;;;;;;;10.05;5.88;;;13.80;99.90;;;;;;5071416;28;20032;-84
2022/07/05 01:28:32;;;;;;;7.93;4.30;;;13.80;99.90;;;;;;5093500;28;20039;-84
2022/07/05 01:31:00;;;;;;;8.20;4.32;;;13.80;99.90;;;;;;5092564;28;20036;-83
2022/07/05 01:33:30;;;;;;;7.65;5.18;;;13.70;99.90;;;;;;5093036;28;20044;-83
2022/07/05 01:35:57;;;;;;;9.23;4.82;;;13.70;99.90;;;;;;5093630;28;20122;-84
2022/07/05 01:38:23;;;;;;;9.57;7.20;;;13.70;99.90;;;;;;5075517;28;20044;-83
2022/07/05 01:40:51;;;;;;;9.68;6.35;;;13.80;99.90;;;;;;5092892;28;20040;-84
2022/07/05 01:43:18;;;;;;;9.55;4.95;;;13.80;99.90;;;;;;5074456;28;20114;-84
2022/07/05 01:45:46;;;;;;;8.05;4.22;;;13.80;99.90;;;;;;5092565;28;20051;-84
2022/07/05 01:48:14;;;;;;;9.70;6.28;;;13.60;99.90;;;;;;5092123;28;20050;-84
2022/07/05 01:51:02;;;;;;;8.82;6.40;;;13.60;99.90;;;;;;5075635;28;20040;-84
2022/07/05 01:53:29;;;;;;;9.63;4.32;;;13.70;99.90;;;;;;5092883;28;20056;-80
2022/07/05 01:56:03;;;;;;;9.50;4.97;;;13.60;99.90;;;;;;5073508;28;20898;-83
2022/07/05 01:58:30;;;;;;;8.90;4.97;;;13.60;99.90;;;;;;5091734;28;20075;-83
2022/07/05 02:00:57;;;;;;;8.77;6.05;;;13.50;99.90;;;;;;5091168;28;20086;-83
2022/07/05 02:03:23;;;;;;;10.65;5.30;;;13.60;99.90;;;;;;5072100;28;20036;-83
2022/07/05 02:05:50;;;;;;;10.88;6.70;;;13.50;99.90;;;;;;5089943;28;20032;-83
2022/07/05 02:08:17;;;;;;;11.38;7.65;;;13.60;99.90;;;;;;5091200;28;20066;-83
2022/07/05 02:10:43;;;;;;;9.43;5.40;;;13.60;99.90;;;;;;5091914;28;20040;-83
2022/07/05 02:13:09;;;;;;;9.32;6.78;;;13.50;99.90;;;;;;5076010;28;20122;-82
2022/07/05 02:15:37;;;;;;;10.75;5.53;;;13.50;99.90;;;;;;5092802;28;20031;-83
2022/07/05 02:18:04;;;;;;;10.18;7.15;;;13.50;99.90;;;;;;5091306;28;20518;-83
2022/07/05 02:20:31;;;;;;;10.50;5.15;;;13.50;99.90;;;;;;5075357;28;20036;-83
2022/07/05 02:22:57;;;;;;;9.93;7.22;;;13.50;99.90;;;;;;5074408;28;20043;-83
2022/07/05 02:25:23;;;;;;;9.38;4.95;;;13.50;99.90;;;;;;5091381;28;20432;-83
2022/07/05 02:27:50;;;;;;;9.32;4.90;;;13.40;99.90;;;;;;5073987;28;20028;-83
2022/07/05 02:30:16;;;;;;;11.18;7.40;;;13.30;99.90;;;;;;5091753;28;20938;-83
2022/07/05 02:32:42;;;;;;;10.57;7.38;;;13.30;99.90;;;;;;5075285;28;20651;-83
2022/07/05 02:35:09;;;;;;;10.57;5.85;;;13.40;99.90;;;;;;5091866;28;20043;-83
2022/07/05 02:37:36;;;;;;;9.13;5.32;;;13.30;99.90;;;;;;5074590;28;20040;-83
2022/07/05 02:40:02;;;;;;;11.23;5.90;;;13.20;99.90;;;;;;5074977;28;20040;-83
2022/07/05 02:42:27;;;;;;;10.38;7.75;;;13.20;99.90;;;;;;5074297;28;20067;-83
2022/07/05 02:44:53;;;;;;;11.48;6.30;;;13.30;99.90;;;;;;5074268;28;20086;-83
2022/07/05 02:47:18;;;;;;;9.30;7.43;;;13.20;99.90;;;;;;5074015;28;20036;-83
2022/07/05 02:49:44;;;;;;;8.95;5.57;;;13.20;99.90;;;;;;5091045;28;20032;-84
2022/07/05 02:52:10;;;;;;;10.20;7.38;;;13.20;99.90;;;;;;5091830;28;20040;-83
2022/07/05 02:54:35;;;;;;;10.07;4.90;;;13.20;99.90;;;;;;5091556;28;20039;-83
2022/07/05 02:57:01;;;;;;;10.38;7.85;;;13.20;99.90;;;;;;5091504;28;20042;-83
2022/07/05 02:59:27;;;;;;;9.23;5.68;;;13.20;99.90;;;;;;5074709;28;20050;-84
2022/07/05 03:01:52;;;;;;;10.30;6.82;;;13.10;99.90;;;;;;5090501;28;20115;-83
2022/07/05 03:04:18;;;;;;;9.32;6.05;;;13.10;99.90;;;;;;5090827;28;20043;-84
2022/07/05 03:06:44;;;;;;;9.88;6.38;;;13.00;99.90;;;;;;5073547;28;20032;-83
2022/07/05 03:09:10;;;;;;;10.60;8.32;;;13.00;99.90;;;;;;5074038;28;20089;-84
2022/07/05 03:11:36;;;;;;;10.63;6.57;;;13.00;99.90;;;;;;5090927;28;20063;-83
2022/07/05 03:14:02;;;;;;;11.50;8.60;;;13.10;99.90;;;;;;5090925;28;20040;-83
2022/07/05 03:16:29;;;;;;;9.35;6.45;;;13.10;99.90;;;;;;5091467;28;20486;-84
2022/07/05 03:18:54;;;;;;;9.50;5.72;;;13.00;99.90;;;;;;5090756;28;20047;-83
2022/07/05 03:21:20;;;;;;;12.73;8.95;;;13.00;99.90;;;;;;5090659;28;20089;-83
2022/07/05 03:23:46;;;;;;;10.68;6.55;;;13.00;99.90;;;;;;5091009;28;20476;-84
2022/07/05 03:26:11;;;;;;;12.52;8.80;;;13.00;99.90;;;;;;5089798;28;20485;-84
2022/07/05 03:28:37;;;;;;;12.40;9.45;;;13.10;99.90;;;;;;5074019;28;20032;-84
2022/07/05 03:31:03;;;;;;;12.02;6.97;;;13.10;99.90;;;;;;5072739;28;20036;-84
2022/07/05 03:33:28;;;;;;;10.93;6.45;;;13.10;99.90;;;;;;5090863;28;20043;-84
2022/07/05 03:35:54;;;;;;;12.18;9.02;;;13.00;99.90;;;;;;5090914;28;20079;-84
2022/07/05 03:38:19;;;;;;;11.15;9.18;;;13.00;99.90;;;;;;5091112;28;20032;-84
2022/07/05 03:40:45;;;;;;;9.93;5.70;;;13.10;99.90;;;;;;5090491;28;20044;-84
2022/07/05 03:43:10;;;;;;;10.98;8.55;;;13.10;99.90;;;;;;5089374;28;20040;-84
2022/07/05 03:45:36;;;;;;;11.60;6.50;;;13.10;99.90;;;;;;5072059;28;20127;-83
2022/07/05 03:48:02;;;;;;;11.10;6.15;;;13.00;99.90;;;;;;5090073;28;20524;-84
2022/07/05 03:50:27;;;;;;;12.80;9.55;;;13.00;99.90;;;;;;5071531;28;20733;-83
2022/07/05 03:52:53;;;;;;;13.20;7.10;;;13.00;99.90;;;;;;5090386;28;20067;-83
2022/07/05 03:55:19;;;;;;;10.88;6.03;;;13.10;99.90;;;;;;5089936;28;20058;-83
2022/07/05 03:57:45;;;;;;;11.35;8.85;;;13.00;99.90;;;;;;5073787;28;20044;-83
2022/07/05 04:00:11;;;;;;;12.65;7.82;;;13.00;99.90;;;;;;5072805;28;20391;-83
2022/07/05 04:02:37;;;;;;;10.73;8.90;;;13.00;99.90;;;;;;5073064;28;20064;-83
2022/07/05 04:05:04;;;;;;;10.45;6.10;;;13.00;99.90;;;;;;5072949;28;20048;-83
2022/07/05 04:07:29;;;;;;;9.80;6.32;;;13.00;99.90;;;;;;5089433;28;20497;-83
2022/07/05 04:09:55;;;;;;;10.65;6.88;;;13.00;99.90;;;;;;5089922;28;20115;-84
2022/07/05 04:12:21;;;;;;;11.35;9.15;;;13.00;99.90;;;;;;5090479;28;20501;-83
2022/07/05 04:14:46;;;;;;;15.15;10.13;;;13.00;99.90;;;;;;5089658;28;20059;-84
2022/07/05 04:17:12;;;;;;;10.57;6.88;;;13.10;99.90;;;;;;5090205;28;20039;-84
2022/07/05 04:19:37;;;;;;;11.55;8.45;;;13.10;99.90;;;;;;5090289;28;20086;-83
2022/07/05 04:22:04;;;;;;;11.05;6.68;;;13.10;99.90;;;;;;5072313;28;20040;-84
2022/07/05 04:24:30;;;;;;;10.55;6.53;;;13.10;99.90;;;;;;5089730;28;20044;-84
2022/07/05 04:26:55;;;;;;;12.93;9.38;;;13.10;99.90;;;;;;5089131;28;21938;-84
2022/07/05 04:29:21;;;;;;;12.27;6.70;;;13.20;99.90;;;;;;5089075;28;20040;-83
2022/07/05 04:31:47;;;;;;;12.27;9.55;;;13.20;99.90;;;;;;5089768;28;20044;-84
2022/07/05 04:34:12;;;;;;;12.32;6.65;;;13.20;99.90;;;;;;5089085;28;20086;-83
2022/07/05 04:36:40;;;;;;;12.23;9.27;;;13.20;99.90;;;;;;5090784;28;20079;-83
2022/07/05 04:39:07;;;;;;;12.45;9.52;;;13.30;99.90;;;;;;5090055;28;20040;-83
2022/07/05 04:41:33;;;;;;;9.88;6.75;;;13.30;99.90;;;;;;5072486;28;20075;-84
2022/07/05 04:43:59;;;;;;;10.45;7.03;;;13.30;99.90;;;;;;5089246;28;20075;-84
2022/07/05 04:46:25;;;;;;;10.80;9.52;;;13.40;99.90;;;;;;5088820;28;20063;-84
2022/07/05 04:48:50;;;;;;;12.23;9.57;;;13.40;99.90;;;;;;5088858;28;20046;-84
2022/07/05 04:51:16;;;;;;;12.57;7.18;;;13.50;99.90;;;;;;5072330;28;20040;-83
2022/07/05 04:53:42;;;;;;;13.13;9.90;;;13.60;99.90;;;;;;5089127;28;20032;-83
2022/07/05 04:56:08;;;;;;;11.82;7.38;;;13.60;99.90;;;;;;5090279;28;20497;-83
2022/07/05 04:58:33;;;;;;;12.95;9.63;;;13.70;99.90;;;;;;5089587;28;20039;-83
2022/07/05 05:00:59;;;;;;;11.15;8.02;;;13.70;99.90;;;;;;5065881;28;20028;-83
2022/07/05 05:03:25;;;;;;;11.77;10.15;;;13.80;99.90;;;;;;5093306;28;20563;-83
2022/07/05 05:05:51;;;;;;;13.02;10.02;;;13.90;99.90;;;;;;5075785;28;20043;-84
2022/07/05 05:08:16;;;;;;;13.88;8.02;;;14.00;99.90;;;;;;5083791;28;20514;-84
2022/07/05 05:10:42;;;;;;;13.43;10.27;;;14.00;99.90;;;;;;5066736;28;20032;-84
2022/07/05 05:13:08;;;;;;;11.57;7.72;;;14.10;99.90;;;;;;5098898;28;20032;-84
2022/07/05 05:15:33;;;;;;;10.90;7.10;;;14.20;99.90;;;;;;5083631;28;20037;-84
2022/07/05 05:17:59;;;;;;;11.82;9.50;;;14.20;99.90;;;;;;5084304;28;20055;-83
2022/07/05 05:20:24;;;;;;;12.70;10.40;;;14.30;99.90;;;;;;5104707;28;20046;-83
2022/07/05 05:22:50;;;;;;;12.65;7.82;;;14.40;99.90;;;;;;5092984;28;20413;-84
2022/07/05 05:25:16;;;;;;;12.30;7.50;;;14.50;99.90;;;;;;5093550;28;20078;-83
2022/07/05 05:27:46;;;;;;;12.10;9.45;;;14.50;99.90;;;;;;5109721;28;20697;-84
2022/07/05 05:30:13;;;;;;;12.07;9.52;;;14.60;99.90;;;;;;5084346;28;20668;-83
2022/07/05 05:32:39;;;;;;;11.63;7.78;;;14.70;99.90;;;;;;5076394;28;20044;-84
2022/07/05 05:35:06;;;;;;;11.98;9.10;;;14.70;99.90;;;;;;5093105;28;20401;-83
2022/07/05 05:37:44;;;;;;;15.73;9.73;;;14.80;99.90;;;;;;5076492;28;20032;-83
2022/07/05 05:40:10;;;;;;;12.30;8.20;;;14.90;99.90;;;;;;5092590;28;20028;-84
2022/07/05 05:42:36;;;;;;;12.95;8.65;;;15.00;99.90;;;;;;5093104;28;20117;-84
2022/07/05 05:45:01;;;;;;;13.25;8.13;;;15.10;99.90;;;;;;5092252;28;20485;-83
2022/07/05 05:47:27;;;;;;;11.70;8.38;;;15.10;99.90;;;;;;5092060;28;20079;-84
2022/07/05 05:49:52;;;;;;;14.90;7.30;;;15.20;99.90;;;;;;5092195;28;20143;-84
2022/07/05 05:52:18;;;;;;;12.43;9.02;;;15.20;99.90;;;;;;5092569;28;20617;-84
2022/07/05 05:54:43;;;;;;;10.77;7.50;;;15.20;99.90;;;;;;5092881;28;20040;-84
2022/07/05 05:57:09;;;;;;;12.55;9.55;;;15.30;99.90;;;;;;5092565;28;20043;-84
2022/07/05 05:59:35;;;;;;;12.10;8.50;;;15.30;99.90;;;;;;5093288;28;20086;-84
2022/07/05 06:02:00;;;;;;;12.75;9.75;;;15.40;99.90;;;;;;5092485;28;20040;-84
2022/07/05 06:04:26;;;;;;;12.20;8.88;;;15.40;99.90;;;;;;5091812;28;20087;-84
2022/07/05 06:06:51;;;;;;;12.07;7.72;;;15.50;99.90;;;;;;5091685;28;20038;-84
2022/07/05 06:09:17;;;;;;;11.75;8.63;;;15.50;99.90;;;;;;5071089;28;20470;-84
2022/07/05 06:11:42;;;;;;;12.07;8.15;;;15.60;99.90;;;;;;5068125;28;20092;-84
2022/07/05 06:14:08;;;;;;;11.98;9.10;;;15.60;99.90;;;;;;5089542;28;20040;-85
2022/07/05 06:16:34;;;;;;;11.73;8.35;;;15.70;99.90;;;;;;5092645;28;20129;-84
2022/07/05 06:19:00;;;;;;;12.43;7.88;;;15.70;99.90;;;;;;5092867;28;20477;-84
2022/07/05 06:21:25;;;;;;;11.13;8.27;;;15.80;99.90;;;;;;5091859;28;20404;-85
2022/07/05 06:23:51;;;;;;;11.48;7.93;;;15.90;99.90;;;;;;5075163;28;20040;-84
2022/07/05 06:26:16;;;;;;;10.30;8.05;;;15.90;99.90;;;;;;5091413;28;20039;-84
2022/07/05 06:28:42;;;;;;;13.50;8.30;;;15.90;99.90;;;;;;5091492;28;20514;-84
2022/07/05 06:31:08;;;;;;;12.77;6.93;;;16.00;99.90;;;;;;5091512;28;20036;-85
2022/07/05 06:33:33;;;;;;;10.65;7.78;;;16.10;99.90;;;;;;5075232;28;20566;-85
2022/07/05 06:35:59;;;;;;;10.95;7.70;;;16.20;99.90;;;;;;5092559;28;20409;-85
2022/07/05 06:38:24;;;;;;;9.50;7.65;;;16.20;99.90;;;;;;5074930;28;20040;-84
2022/07/05 06:40:50;;;;;;;9.90;7.15;;;16.40;99.90;;;;;;5091978;28;20043;-84
2022/07/05 06:43:15;;;;;;;9.23;6.00;;;16.40;99.90;;;;;;5073804;28;20048;-84
2022/07/05 06:45:41;;;;;;;9.90;5.97;;;16.50;99.90;;;;;;5074737;28;20424;-84
2022/07/05 06:48:09;;;;;;;11.45;6.90;;;16.60;99.90;;;;;;5091480;28;20093;-85
2022/07/05 06:50:37;;;;;;;10.00;5.57;;;16.60;99.90;;;;;;5074002;28;20036;-85
2022/07/05 06:53:03;;;;;;;10.55;6.10;;;16.80;99.90;;;;;;5091607;28;20075;-84
2022/07/05 06:55:29;;;;;;;9.30;5.13;;;16.90;99.90;;;;;;5091783;28;20122;-84
2022/07/05 06:57:58;;;;;;;8.50;4.57;;;17.00;99.90;;;;;;5091673;28;20075;-84
2022/07/05 07:00:23;;;;;;;10.45;5.45;;;17.00;99.90;;;;;;5072354;28;20044;-84
2022/07/05 07:02:49;;;;;;;9.32;4.70;;;17.10;99.90;;;;;;5070672;28;20094;-84
2022/07/05 07:05:14;;;;;;;9.20;4.28;;;17.10;99.90;;;;;;5098322;28;20413;-84
2022/07/05 07:10:25;;;;;;;9.13;4.88;;;17.20;99.90;;;;;;5088254;28;20044;-84
2022/07/05 07:12:51;;;;;;;12.43;4.75;;;17.40;99.90;;;;;;5083211;28;20040;-85
2022/07/05 07:15:17;;;;;;;10.45;4.30;;;17.50;99.90;;;;;;5056661;28;20087;-84
2022/07/05 07:17:42;;;;;;;9.45;3.03;;;17.50;99.90;;;;;;5084725;28;20032;-86
2022/07/05 07:20:09;;;;;;;8.15;3.03;;;17.60;99.90;;;;;;5090575;28;20090;-85
2022/07/05 07:22:34;;;;;;;8.60;3.20;;;17.70;99.90;;;;;;5073196;28;20036;-85
2022/07/05 07:25:00;;;;;;;8.45;3.08;;;17.80;99.90;;;;;;5071579;28;20050;-85
2022/07/05 07:27:26;;;;;;;8.20;2.92;;;17.80;99.90;;;;;;5073274;28;20039;-85
2022/07/05 07:29:51;;;;;;;9.10;3.42;;;17.90;99.90;;;;;;5072567;28;20606;-84
2022/07/05 07:32:18;;;;;;;7.15;3.22;;;18.00;99.90;;;;;;5073112;28;20677;-84
2022/07/05 07:34:44;;;;;;;7.78;2.83;;;18.00;99.90;;;;;;5072916;28;20401;-85
2022/07/05 07:37:13;;;;;;;8.02;3.03;;;18.10;99.90;;;;;;5090297;28;20047;-84
2022/07/05 07:39:39;;;;;;;9.35;3.22;;;18.10;99.90;;;;;;5089815;28;20520;-84
2022/07/05 07:42:06;;;;;;;8.60;3.03;;;18.20;99.90;;;;;;5072700;28;20051;-84
2022/07/05 07:44:32;;;;;;;9.32;2.90;;;18.30;99.90;;;;;;5089340;28;20028;-84
2022/07/05 07:46:58;;;;;;;8.75;2.97;;;18.30;99.90;;;;;;5089177;28;20107;-85
2022/07/05 07:49:23;;;;;;;8.13;2.50;;;18.30;99.90;;;;;;5089371;28;20536;-85
2022/07/05 07:51:50;;;;;;;8.25;2.50;;;18.30;99.90;;;;;;5089668;28;20516;-85
2022/07/05 07:54:15;;;;;;;6.72;2.20;;;18.40;99.90;;;;;;5089599;28;20237;-85
2022/07/05 07:56:41;;;;;;;9.00;2.67;;;18.40;99.90;;;;;;5090584;28;20119;-85
2022/07/05 07:59:07;;;;;;;5.68;1.92;;;18.50;99.90;;;;;;5091011;28;20109;-85
2022/07/05 08:01:32;;;;;;;8.73;2.28;;;18.50;99.90;;;;;;5072473;28;20501;-85
2022/07/05 08:03:58;;;;;;;6.50;2.03;;;18.60;99.90;;;;;;5089412;28;20097;-85
2022/07/05 08:06:23;;;;;;;8.63;2.47;;;18.60;99.90;;;;;;5089198;28;20028;-85
2022/07/05 08:08:49;;;;;;;7.18;2.05;;;18.70;99.90;;;;;;5089015;28;20042;-85
2022/07/05 08:11:15;;;;;;;6.97;1.92;;;18.60;99.90;;;;;;5089327;28;20383;-85
2022/07/05 08:13:42;;;;;;;10.40;2.40;;;18.60;99.90;;;;;;5088669;28;20063;-85
2022/07/05 08:16:09;;;;;;;5.22;2.03;;;18.50;99.90;;;;;;5089871;28;20413;-85
2022/07/05 08:21:31;;;;;;;7.30;2.38;;;18.50;99.90;;;;;;5088718;28;20223;-85
2022/07/05 08:24:17;;;;;;;7.50;2.35;;;18.40;99.90;;;;;;5072538;28;20079;-85
2022/07/05 08:26:43;;;;;;;6.18;2.05;;;18.40;99.90;;;;;;5065940;28;20394;-84
2022/07/05 08:29:11;;;;;;;7.43;2.05;;;18.40;99.90;;;;;;5088916;28;20032;-85
2022/07/05 08:31:44;;;;;;;6.72;1.80;;;18.50;99.90;;;;;;5088036;28;20432;-85
2022/07/05 08:34:10;;;;;;;7.03;2.17;;;18.60;99.90;;;;;;5089405;28;20051;-85
2022/07/05 08:36:36;;;;;;;7.57;1.88;;;18.70;99.90;;;;;;5089291;28;20036;-85
2022/07/05 08:39:03;;;;;;;4.57;1.38;;;18.80;99.90;;;;;;5071981;28;20040;-84
2022/07/05 08:41:31;;;;;;;8.32;1.60;;;18.80;99.90;;;;;;5089683;28;20447;-85
2022/07/05 08:43:58;;;;;;;6.03;1.40;;;18.80;99.90;;;;;;5071129;28;20464;-85
2022/07/05 08:46:25;;;;;;;5.80;1.52;;;18.70;99.90;;;;;;5087503;28;20040;-85
2022/07/05 08:48:51;;;;;;;6.40;1.48;;;18.70;99.90;;;;;;5088868;28;20443;-85
2022/07/05 08:51:21;;;;;;;6.65;1.67;;;18.70;99.90;;;;;;5089008;28;20500;-85
2022/07/05 08:53:47;;;;;;;7.78;1.67;;;18.70;99.90;;;;;;5072463;28;20024;-84
2022/07/05 08:56:14;;;;;;;8.43;1.88;;;18.60;99.90;;;;;;5089462;28;20761;-84
2022/07/05 08:58:40;;;;;;;6.93;1.50;;;18.70;99.90;;;;;;5089127;28;20048;-82
2022/07/05 09:01:08;;;;;;;4.05;1.30;;;18.80;99.90;;;;;;5097144;28;20032;-84
2022/07/05 09:03:45;;;;;;;6.90;1.40;;;19.00;99.90;;;;;;5091011;28;20028;-84
2022/07/05 09:06:13;;;;;;;10.52;1.45;;;19.30;99.90;;;;;;5072593;28;20079;-83
2022/07/05 09:08:40;;;;;;;5.97;1.63;;;19.40;99.90;;;;;;5090884;28;20040;-83
2022/07/05 09:11:08;;;;;;;4.57;1.50;;;19.50;99.90;;;;;;5074077;28;20032;-84
2022/07/05 09:13:36;;;;;;;5.07;1.45;;;19.50;99.90;;;;;;5090351;28;20123;-83
2022/07/05 09:16:02;;;;;;;4.63;1.20;;;19.40;99.90;;;;;;5090421;28;20123;-84
2022/07/05 09:18:45;;;;;;;3.85;1.10;;;19.30;99.90;;;;;;5090077;28;20070;-83
2022/07/05 09:21:20;;;;;;;5.97;1.40;;;19.20;99.90;;;;;;5089746;28;20039;-84
2022/07/05 09:24:04;;;;;;;7.65;1.45;;;19.10;99.90;;;;;;5072670;28;20043;-84
2022/07/05 09:26:35;;;;;;;6.90;1.38;;;19.10;99.90;;;;;;5072647;28;20382;-85
2022/07/05 09:29:01;;;;;;;7.10;1.73;;;19.30;99.90;;;;;;5089515;28;20059;-84
2022/07/05 09:31:35;;;;;;;5.40;1.35;;;19.50;99.90;;;;;;5072860;28;20085;-85
2022/07/05 09:34:06;;;;;;;4.97;1.70;;;19.60;99.90;;;;;;5089448;28;20111;-84
2022/07/05 09:36:50;;;;;;;6.05;1.38;;;19.60;99.90;;;;;;5073010;28;20036;-84
2022/07/05 09:39:17;;;;;;;5.47;1.45;;;19.60;99.90;;;;;;5089320;28;20036;-84
2022/07/05 09:41:42;;;;;;;4.95;1.35;;;19.50;99.90;;;;;;5089783;28;20379;-85
2022/07/05 09:44:50;;;;;;;5.40;1.40;;;19.50;99.90;;;;;;5090783;28;20096;-85
2022/07/05 09:47:18;;;;;;;8.10;2.03;;;19.50;99.90;;;;;;5090388;28;20127;-84
2022/07/05 09:57:23;;;;;;;8.32;1.70;;;19.80;99.90;;;;;;5093392;28;20138;-85
2022/07/05 10:00:16;;;;;;;14.10;2.20;;;20.10;99.90;;;;;;5094266;28;20071;-85
2022/07/05 10:03:38;;;;;;;8.32;1.60;;;20.30;99.90;;;;;;5085827;28;20078;-85
2022/07/05 10:09:44;;;;;;;38.45;3.88;;;20.00;99.90;;;;;;5084919;28;19928;-85
2022/07/05 10:18:56;;;;;;;12.30;1.60;;;20.00;99.90;;;;;;5094568;28;20047;-85
2022/07/05 10:21:25;;;;;;;7.15;1.63;;;20.10;99.90;;;;;;5109908;28;20051;-85
2022/07/05 10:23:53;;;;;;;6.90;1.50;;;20.20;99.90;;;;;;5110303;28;20048;-85
2022/07/05 10:26:20;;;;;;;6.38;1.42;;;20.40;99.90;;;;;;5109913;28;20447;-85
2022/07/05 10:28:49;;;;;;;6.38;1.52;;;20.50;99.90;;;;;;5109926;28;20064;-84
2022/07/05 10:31:16;;;;;;;7.90;1.40;;;20.40;99.30;;;;;;5109772;28;20394;-85
2022/07/05 10:33:42;;;;;;;5.70;1.55;;;20.40;97.90;;;;;;5094138;28;20074;-85
2022/07/05 10:36:10;;;;;;;4.90;1.10;;;20.40;99.90;;;;;;5093138;28;20433;-84
2022/07/05 10:38:38;;;;;;;7.35;1.90;;;20.30;98.70;;;;;;5109850;28;20036;-84
2022/07/05 10:41:07;;;;;;;6.22;1.45;;;20.20;98.30;;;;;;5109561;27;20043;-84
2022/07/05 10:43:33;;;;;;;5.80;1.40;;;20.10;97.70;;;;;;5075838;28;20044;-85
2022/07/05 10:45:59;;;;;;;5.90;1.40;;;20.20;97.60;;;;;;5075683;28;20036;-85
2022/07/05 10:48:26;;;;;;;7.32;1.63;;;20.40;99.90;;;;;;5076170;28;20130;-84
2022/07/05 10:50:58;;;;;;;7.68;1.75;;;20.60;99.90;;;;;;5075430;28;20075;-85
2022/07/05 10:53:25;;;;;;;4.65;1.27;;;20.60;98.60;;;;;;5075635;28;20036;-85
2022/07/05 10:56:12;;;;;;;5.70;1.50;;;20.40;98.20;;;;;;5109949;28;20177;-85
2022/07/05 10:58:45;;;;;;;5.57;1.48;;;20.20;94.10;;;;;;5093499;28;20054;-84
2022/07/05 11:01:23;;;;;;;7.68;1.90;;;20.00;96.10;;;;;;5092382;28;20440;-84
2022/07/05 11:04:00;;;;;;;5.60;1.40;;;19.90;98.80;;;;;;5093746;28;20040;-84
2022/07/05 11:06:39;;;;;;;4.88;1.27;;;20.00;99.90;;;;;;5109188;28;20051;-84
2022/07/05 11:09:13;;;;;;;5.90;1.50;;;20.20;99.90;;;;;;5093323;28;20040;-83
2022/07/05 11:11:43;;;;;;;6.32;1.50;;;20.50;99.90;;;;;;5092208;28;20047;-85
2022/07/05 11:14:29;;;;;;;10.07;1.85;;;20.80;99.40;;;;;;5075283;28;20510;-85
2022/07/05 11:17:22;;;;;;;11.25;1.85;;;21.00;98.70;;;;;;5109008;28;20462;-85
2022/07/05 11:20:04;;;;;;;5.70;1.30;;;21.10;98.70;;;;;;5108690;28;20485;-85
2022/07/05 11:22:30;;;;;;;7.93;1.38;;;21.00;99.40;;;;;;5109225;28;20144;-85
2022/07/05 11:24:57;;;;;;;6.95;1.55;;;21.00;99.70;;;;;;5108746;28;20089;-84
2022/07/05 11:27:23;;;;;;;6.63;1.40;;;20.90;99.90;;;;;;5091823;28;20043;-84
2022/07/05 11:29:50;;;;;;;6.95;1.50;;;20.90;99.90;;;;;;5108558;28;20036;-84
2022/07/05 11:32:29;;;;;;;6.13;1.40;;;20.90;99.90;;;;;;5108992;28;20371;-84
2022/07/05 11:35:10;;;;;;;6.22;1.35;;;20.90;99.90;;;;;;5108546;28;20105;-84
2022/07/05 11:38:03;;;;;;;8.35;1.65;;;20.90;99.90;;;;;;5091036;28;20075;-84
2022/07/05 11:40:31;;;;;;;6.22;1.33;;;21.00;99.90;;;;;;5091196;28;20051;-83
2022/07/05 11:42:57;;;;;;;7.18;1.40;;;21.10;99.90;;;;;;5108188;28;20051;-84
2022/07/05 11:45:24;;;;;;;5.65;1.40;;;21.30;99.90;;;;;;5091358;28;20048;-84
2022/07/05 11:47:53;;;;;;;6.10;1.60;;;21.60;99.90;;;;;;5108365;28;20071;-84
2022/07/05 11:50:29;;;;;;;6.78;2.03;;;21.70;99.90;;;;;;5108222;28;20043;-84
2022/07/05 11:52:55;;;;;;;6.18;1.73;;;21.80;99.90;;;;;;5108525;28;20032;-84
2022/07/05 11:55:20;;;;;;;8.80;1.70;;;21.70;98.10;;;;;;5074458;28;20467;-84
2022/07/05 11:57:51;;;;;;;5.25;1.50;;;21.60;98.80;;;;;;5107737;28;20050;-84
2022/07/05 12:00:32;;;;;;;7.93;1.65;;;21.60;99.60;;;;;;5108231;28;20036;-84
2022/07/05 12:02:58;;;;;;;8.43;1.70;;;21.60;97.90;;;;;;5108254;28;20039;-84
2022/07/05 12:05:29;;;;;;;8.15;1.50;;;21.60;98.70;;;;;;5108279;28;20412;-84
2022/07/05 12:07:55;;;;;;;5.93;1.50;;;21.40;95.50;;;;;;5108057;28;20042;-84
2022/07/05 12:13:06;;;;;;;5.05;1.27;;;21.00;98.50;;;;;;5091000;28;20051;-84
2022/07/05 12:15:32;;;;;;;7.38;1.50;;;20.70;97.70;;;;;;5107972;28;20040;-84
2022/07/05 12:18:04;;;;;;;6.35;1.45;;;20.50;97.60;;;;;;5107974;28;20562;-84
2022/07/05 12:20:31;;;;;;;8.38;1.50;;;20.50;99.00;;;;;;5090947;28;20089;-84
2022/07/05 12:22:58;;;;;;;7.70;1.55;;;20.60;99.50;;;;;;5108095;28;20047;-84
2022/07/05 12:25:25;;;;;;;4.80;1.30;;;20.70;99.90;;;;;;5107655;28;20068;-84
2022/07/05 12:27:53;;;;;;;6.65;1.60;;;21.00;99.90;;;;;;5108016;28;20037;-84
2022/07/05 12:30:19;;;;;;;5.93;1.30;;;21.30;99.90;;;;;;5090588;28;20690;-84
2022/07/05 12:33:03;;;;;;;8.80;1.30;;;21.60;99.90;;;;;;5107603;28;20032;-84
2022/07/05 12:35:43;;;;;;;7.28;1.42;;;21.90;98.60;;;;;;5074103;28;20562;-83
2022/07/05 12:38:20;;;;;;;11.10;1.48;;;22.10;93.80;;;;;;5089659;28;20401;-84
2022/07/05 12:40:59;;;;;;;6.70;1.45;;;22.20;94.50;;;;;;5106585;28;20093;-84
2022/07/05 12:43:25;;;;;;;6.68;1.48;;;22.40;94.30;;;;;;5100690;28;20497;-84
2022/07/05 12:46:05;;;;;;;7.38;1.58;;;22.50;93.40;;;;;;5095405;28;20124;-84
2022/07/05 12:48:35;;;;;;;5.80;1.15;;;22.60;83.60;;;;;;5073333;28;20032;-85
2022/07/05 12:51:02;;;;;;;6.35;1.30;;;22.50;78.60;;;;;;5069734;28;20071;-84
2022/07/05 12:59:03;;;;;;;3.50;1.00;;;22.60;79.60;;;;;;5087277;28;20049;-84
2022/07/05 13:01:34;;;;;;;6.03;1.70;;;22.30;75.80;;;;;;5070325;28;20048;-84
2022/07/05 13:04:09;;;;;;;6.00;1.10;;;22.10;72.00;;;;;;5053631;28;20469;-84
2022/07/05 13:06:52;;;;;;;4.85;1.33;;;21.90;75.50;;;;;;5086910;28;20067;-84
2022/07/05 13:09:37;;;;;;;5.90;1.08;;;22.10;73.50;;;;;;5053489;28;20154;-84
2022/07/05 13:12:23;;;;;;;4.40;1.23;;;22.40;69.60;;;;;;5064007;28;20036;-84
2022/07/05 13:14:50;;;;;;;4.97;1.10;;;22.40;67.00;;;;;;5081096;28;20043;-84
2022/07/05 13:17:20;;;;;;;3.65;0.95;;;22.40;71.90;;;;;;5081101;28;20040;-84
2022/07/05 13:19:47;;;;;;;3.50;1.00;;;22.40;70.60;;;;;;5079853;28;20032;-84